sensor_id;sensor_type;location;lat;lon;timestamp;temperature;humidity
1337;DHT22;662;48.814;9.318;2023-02-23T00:01:39;10.70;62.30
1337;DHT22;662;48.814;9.318;2023-02-23T00:04:05;10.60;61.60
1337;DHT22;662;48.814;9.318;2023-02-23T00:06:32;10.60;61.60
1337;DHT22;662;48.814;9.318;2023-02-23T00:08:58;10.60;61.70
1337;DHT22;662;48.814;9.318;2023-02-23T00:11:26;10.60;61.70
1337;DHT22;662;48.814;9.318;2023-02-23T00:13:53;10.60;61.70
1337;DHT22;662;48.814;9.318;2023-02-23T00:16:23;10.60;61.70
1337;DHT22;662;48.814;9.318;2023-02-23T00:18:49;10.60;61.80
1337;DHT22;662;48.814;9.318;2023-02-23T00:21:25;10.60;61.80
1337;DHT22;662;48.814;9.318;2023-02-23T00:23:55;10.60;61.80
1337;DHT22;662;48.814;9.318;2023-02-23T00:26:23;10.60;61.80
1337;DHT22;662;48.814;9.318;2023-02-23T00:28:51;10.60;61.90
1337;DHT22;662;48.814;9.318;2023-02-23T00:31:17;10.70;62.10
1337;DHT22;662;48.814;9.318;2023-02-23T00:33:44;10.70;62.00
1337;DHT22;662;48.814;9.318;2023-02-23T00:36:12;10.70;62.10
1337;DHT22;662;48.814;9.318;2023-02-23T00:38:39;10.70;62.10
1337;DHT22;662;48.814;9.318;2023-02-23T00:41:14;10.70;62.20
1337;DHT22;662;48.814;9.318;2023-02-23T00:43:46;10.70;62.30
1337;DHT22;662;48.814;9.318;2023-02-23T00:46:20;10.70;62.30
1337;DHT22;662;48.814;9.318;2023-02-23T00:48:47;10.70;62.30
1337;DHT22;662;48.814;9.318;2023-02-23T00:51:13;10.70;62.20
1337;DHT22;662;48.814;9.318;2023-02-23T00:53:43;10.70;62.20
1337;DHT22;662;48.814;9.318;2023-02-23T00:56:11;10.70;62.20
1337;DHT22;662;48.814;9.318;2023-02-23T00:58:36;10.70;62.30
1337;DHT22;662;48.814;9.318;2023-02-23T01:01:06;10.70;62.50
1337;DHT22;662;48.814;9.318;2023-02-23T01:03:32;10.70;62.50
1337;DHT22;662;48.814;9.318;2023-02-23T01:06:02;10.70;62.50
1337;DHT22;662;48.814;9.318;2023-02-23T01:08:34;10.70;62.70
1337;DHT22;662;48.814;9.318;2023-02-23T01:11:06;10.70;62.70
1337;DHT22;662;48.814;9.318;2023-02-23T01:13:31;10.70;62.90
1337;DHT22;662;48.814;9.318;2023-02-23T01:15:57;10.60;62.90
1337;DHT22;662;48.814;9.318;2023-02-23T01:18:23;10.60;63.00
1337;DHT22;662;48.814;9.318;2023-02-23T01:20:49;10.60;63.20
1337;DHT22;662;48.814;9.318;2023-02-23T01:23:15;10.60;63.30
1337;DHT22;662;48.814;9.318;2023-02-23T01:25:42;10.60;63.40
1337;DHT22;662;48.814;9.318;2023-02-23T01:28:11;10.60;63.50
1337;DHT22;662;48.814;9.318;2023-02-23T01:30:38;10.60;63.70
1337;DHT22;662;48.814;9.318;2023-02-23T01:33:04;10.60;63.80
1337;DHT22;662;48.814;9.318;2023-02-23T01:35:31;10.60;64.00
1337;DHT22;662;48.814;9.318;2023-02-23T01:37:58;10.60;64.20
1337;DHT22;662;48.814;9.318;2023-02-23T01:40:25;10.60;64.40
1337;DHT22;662;48.814;9.318;2023-02-23T01:43:10;10.50;64.40
1337;DHT22;662;48.814;9.318;2023-02-23T01:45:38;10.50;64.50
1337;DHT22;662;48.814;9.318;2023-02-23T01:50:43;10.50;64.80
1337;DHT22;662;48.814;9.318;2023-02-23T01:53:09;10.40;64.70
1337;DHT22;662;48.814;9.318;2023-02-23T01:55:36;10.40;64.80
1337;DHT22;662;48.814;9.318;2023-02-23T01:58:09;10.40;64.90
1337;DHT22;662;48.814;9.318;2023-02-23T02:00:46;10.40;65.00
1337;DHT22;662;48.814;9.318;2023-02-23T02:03:16;10.40;65.20
1337;DHT22;662;48.814;9.318;2023-02-23T02:05:45;10.40;65.30
1337;DHT22;662;48.814;9.318;2023-02-23T02:08:13;10.40;65.30
1337;DHT22;662;48.814;9.318;2023-02-23T02:10:40;10.40;65.30
1337;DHT22;662;48.814;9.318;2023-02-23T02:13:13;10.40;65.50
1337;DHT22;662;48.814;9.318;2023-02-23T02:18:49;10.40;65.70
1337;DHT22;662;48.814;9.318;2023-02-23T02:24:41;10.40;65.80
1337;DHT22;662;48.814;9.318;2023-02-23T02:30:11;10.40;66.20
1337;DHT22;662;48.814;9.318;2023-02-23T02:32:52;10.40;66.40
1337;DHT22;662;48.814;9.318;2023-02-23T02:43:47;10.40;66.80
1337;DHT22;662;48.814;9.318;2023-02-23T02:46:25;10.40;66.90
1337;DHT22;662;48.814;9.318;2023-02-23T02:48:56;10.40;67.00
1337;DHT22;662;48.814;9.318;2023-02-23T02:51:44;10.40;67.10
1337;DHT22;662;48.814;9.318;2023-02-23T02:56:43;10.40;67.20
1337;DHT22;662;48.814;9.318;2023-02-23T02:59:14;10.40;67.30
1337;DHT22;662;48.814;9.318;2023-02-23T03:02:01;10.40;67.30
1337;DHT22;662;48.814;9.318;2023-02-23T03:04:47;10.40;67.20
1337;DHT22;662;48.814;9.318;2023-02-23T03:07:44;10.40;67.30
1337;DHT22;662;48.814;9.318;2023-02-23T03:10:39;10.40;67.20
1337;DHT22;662;48.814;9.318;2023-02-23T03:16:40;10.40;67.10
1337;DHT22;662;48.814;9.318;2023-02-23T03:19:35;10.40;67.10
1337;DHT22;662;48.814;9.318;2023-02-23T03:22:27;10.40;67.10
1337;DHT22;662;48.814;9.318;2023-02-23T03:31:14;10.30;67.50
1337;DHT22;662;48.814;9.318;2023-02-23T03:34:16;10.30;67.80
1337;DHT22;662;48.814;9.318;2023-02-23T03:40:28;10.30;68.20
1337;DHT22;662;48.814;9.318;2023-02-23T03:43:16;10.30;68.50
1337;DHT22;662;48.814;9.318;2023-02-23T03:46:03;10.20;68.60
1337;DHT22;662;48.814;9.318;2023-02-23T03:48:52;10.30;68.80
1337;DHT22;662;48.814;9.318;2023-02-23T03:51:39;10.30;68.90
1337;DHT22;662;48.814;9.318;2023-02-23T03:54:48;10.30;69.00
1337;DHT22;662;48.814;9.318;2023-02-23T03:57:37;10.30;69.10
1337;DHT22;662;48.814;9.318;2023-02-23T04:00:28;10.30;69.10
1337;DHT22;662;48.814;9.318;2023-02-23T04:03:16;10.40;69.30
1337;DHT22;662;48.814;9.318;2023-02-23T04:06:03;10.40;69.30
1337;DHT22;662;48.814;9.318;2023-02-23T04:08:49;10.40;69.30
1337;DHT22;662;48.814;9.318;2023-02-23T04:17:19;10.40;69.40
1337;DHT22;662;48.814;9.318;2023-02-23T04:19:52;10.40;69.50
1337;DHT22;662;48.814;9.318;2023-02-23T04:22:19;10.40;69.50
1337;DHT22;662;48.814;9.318;2023-02-23T04:24:44;10.40;69.60
1337;DHT22;662;48.814;9.318;2023-02-23T04:27:11;10.40;69.50
1337;DHT22;662;48.814;9.318;2023-02-23T04:29:36;10.40;70.30
1337;DHT22;662;48.814;9.318;2023-02-23T04:32:03;10.40;69.60
1337;DHT22;662;48.814;9.318;2023-02-23T04:34:29;10.40;69.60
1337;DHT22;662;48.814;9.318;2023-02-23T04:36:54;10.40;69.70
1337;DHT22;662;48.814;9.318;2023-02-23T04:39:20;10.40;69.70
1337;DHT22;662;48.814;9.318;2023-02-23T04:41:45;10.40;69.60
1337;DHT22;662;48.814;9.318;2023-02-23T04:44:15;10.40;69.70
1337;DHT22;662;48.814;9.318;2023-02-23T04:46:41;10.40;69.80
1337;DHT22;662;48.814;9.318;2023-02-23T04:49:06;10.40;69.90
1337;DHT22;662;48.814;9.318;2023-02-23T04:51:32;10.40;69.90
1337;DHT22;662;48.814;9.318;2023-02-23T04:53:58;10.40;69.90
1337;DHT22;662;48.814;9.318;2023-02-23T04:56:24;10.40;70.00
1337;DHT22;662;48.814;9.318;2023-02-23T04:58:50;10.40;70.60
1337;DHT22;662;48.814;9.318;2023-02-23T05:01:16;10.40;70.00
1337;DHT22;662;48.814;9.318;2023-02-23T05:03:42;10.40;70.00
1337;DHT22;662;48.814;9.318;2023-02-23T05:06:08;10.40;70.10
1337;DHT22;662;48.814;9.318;2023-02-23T05:08:33;10.40;70.10
1337;DHT22;662;48.814;9.318;2023-02-23T05:10:59;10.40;70.30
1337;DHT22;662;48.814;9.318;2023-02-23T05:13:24;10.40;70.30
1337;DHT22;662;48.814;9.318;2023-02-23T05:15:55;10.40;70.40
1337;DHT22;662;48.814;9.318;2023-02-23T05:18:20;10.40;70.40
1337;DHT22;662;48.814;9.318;2023-02-23T05:20:46;10.40;70.50
1337;DHT22;662;48.814;9.318;2023-02-23T05:23:12;10.30;70.40
1337;DHT22;662;48.814;9.318;2023-02-23T05:25:38;10.40;70.60
1337;DHT22;662;48.814;9.318;2023-02-23T05:28:04;10.30;70.60
1337;DHT22;662;48.814;9.318;2023-02-23T05:30:30;10.30;70.70
1337;DHT22;662;48.814;9.318;2023-02-23T05:32:56;10.40;70.80
1337;DHT22;662;48.814;9.318;2023-02-23T05:35:21;10.30;70.70
1337;DHT22;662;48.814;9.318;2023-02-23T05:37:47;10.30;70.80
1337;DHT22;662;48.814;9.318;2023-02-23T05:40:13;10.30;70.90
1337;DHT22;662;48.814;9.318;2023-02-23T05:42:39;10.30;71.00
1337;DHT22;662;48.814;9.318;2023-02-23T05:45:05;10.30;71.10
1337;DHT22;662;48.814;9.318;2023-02-23T05:47:32;10.30;71.10
1337;DHT22;662;48.814;9.318;2023-02-23T05:50:00;10.30;71.20
1337;DHT22;662;48.814;9.318;2023-02-23T05:52:26;10.30;71.20
1337;DHT22;662;48.814;9.318;2023-02-23T05:54:52;10.30;71.20
1337;DHT22;662;48.814;9.318;2023-02-23T05:57:17;10.30;71.30
1337;DHT22;662;48.814;9.318;2023-02-23T05:59:43;10.30;71.40
1337;DHT22;662;48.814;9.318;2023-02-23T06:02:08;10.30;71.40
1337;DHT22;662;48.814;9.318;2023-02-23T06:04:34;10.40;71.60
1337;DHT22;662;48.814;9.318;2023-02-23T06:07:00;10.30;71.50
1337;DHT22;662;48.814;9.318;2023-02-23T06:09:25;10.40;71.60
1337;DHT22;662;48.814;9.318;2023-02-23T06:11:51;10.40;71.60
1337;DHT22;662;48.814;9.318;2023-02-23T06:14:17;10.40;71.60
1337;DHT22;662;48.814;9.318;2023-02-23T06:16:42;10.40;71.60
1337;DHT22;662;48.814;9.318;2023-02-23T06:19:10;10.40;71.60
1337;DHT22;662;48.814;9.318;2023-02-23T06:21:36;10.40;71.60
1337;DHT22;662;48.814;9.318;2023-02-23T06:24:01;10.40;71.60
1337;DHT22;662;48.814;9.318;2023-02-23T06:26:27;10.40;71.60
1337;DHT22;662;48.814;9.318;2023-02-23T06:28:53;10.40;71.50
1337;DHT22;662;48.814;9.318;2023-02-23T06:31:20;10.40;71.60
1337;DHT22;662;48.814;9.318;2023-02-23T06:33:45;10.40;71.60
1337;DHT22;662;48.814;9.318;2023-02-23T06:36:11;10.40;71.60
1337;DHT22;662;48.814;9.318;2023-02-23T06:38:39;10.50;71.80
1337;DHT22;662;48.814;9.318;2023-02-23T06:41:08;10.50;71.70
1337;DHT22;662;48.814;9.318;2023-02-23T06:43:34;10.50;72.40
1337;DHT22;662;48.814;9.318;2023-02-23T06:46:00;10.50;71.70
1337;DHT22;662;48.814;9.318;2023-02-23T06:48:27;10.50;71.60
1337;DHT22;662;48.814;9.318;2023-02-23T06:50:53;10.50;71.60
1337;DHT22;662;48.814;9.318;2023-02-23T06:53:19;10.50;71.60
1337;DHT22;662;48.814;9.318;2023-02-23T06:55:45;10.50;71.60
1337;DHT22;662;48.814;9.318;2023-02-23T06:58:10;10.50;71.60
1337;DHT22;662;48.814;9.318;2023-02-23T07:00:36;10.50;71.70
1337;DHT22;662;48.814;9.318;2023-02-23T07:03:03;10.60;71.80
1337;DHT22;662;48.814;9.318;2023-02-23T07:05:29;10.60;71.80
1337;DHT22;662;48.814;9.318;2023-02-23T07:07:54;10.60;71.60
1337;DHT22;662;48.814;9.318;2023-02-23T07:10:20;10.60;71.50
1337;DHT22;662;48.814;9.318;2023-02-23T07:12:46;10.60;71.40
1337;DHT22;662;48.814;9.318;2023-02-23T07:15:11;10.60;71.40
1337;DHT22;662;48.814;9.318;2023-02-23T07:17:37;10.60;71.30
1337;DHT22;662;48.814;9.318;2023-02-23T07:20:03;10.60;71.40
1337;DHT22;662;48.814;9.318;2023-02-23T07:22:29;10.60;71.30
1337;DHT22;662;48.814;9.318;2023-02-23T07:24:58;10.60;71.30
1337;DHT22;662;48.814;9.318;2023-02-23T07:27:24;10.60;71.40
1337;DHT22;662;48.814;9.318;2023-02-23T07:29:49;10.60;71.40
1337;DHT22;662;48.814;9.318;2023-02-23T07:32:15;10.70;71.60
1337;DHT22;662;48.814;9.318;2023-02-23T07:34:40;10.70;71.60
1337;DHT22;662;48.814;9.318;2023-02-23T07:37:06;10.70;71.60
1337;DHT22;662;48.814;9.318;2023-02-23T07:39:31;10.70;71.60
1337;DHT22;662;48.814;9.318;2023-02-23T07:41:57;10.70;71.60
1337;DHT22;662;48.814;9.318;2023-02-23T07:44:23;10.70;71.60
1337;DHT22;662;48.814;9.318;2023-02-23T07:46:48;10.80;71.80
1337;DHT22;662;48.814;9.318;2023-02-23T07:49:14;10.80;71.80
1337;DHT22;662;48.814;9.318;2023-02-23T07:51:40;10.80;71.90
1337;DHT22;662;48.814;9.318;2023-02-23T07:54:06;10.80;71.80
1337;DHT22;662;48.814;9.318;2023-02-23T07:56:32;10.90;71.90
1337;DHT22;662;48.814;9.318;2023-02-23T07:58:58;10.90;71.90
1337;DHT22;662;48.814;9.318;2023-02-23T08:01:23;10.90;72.50
1337;DHT22;662;48.814;9.318;2023-02-23T08:03:49;11.00;71.80
1337;DHT22;662;48.814;9.318;2023-02-23T08:06:16;11.00;71.90
1337;DHT22;662;48.814;9.318;2023-02-23T08:08:42;11.10;71.90
1337;DHT22;662;48.814;9.318;2023-02-23T08:11:08;11.10;71.90
1337;DHT22;662;48.814;9.318;2023-02-23T08:13:35;11.10;71.80
1337;DHT22;662;48.814;9.318;2023-02-23T08:16:01;11.20;72.00
1337;DHT22;662;48.814;9.318;2023-02-23T08:18:27;11.20;71.90
1337;DHT22;662;48.814;9.318;2023-02-23T08:21:00;11.20;71.90
1337;DHT22;662;48.814;9.318;2023-02-23T08:23:28;11.20;72.00
1337;DHT22;662;48.814;9.318;2023-02-23T08:25:54;11.20;72.00
1337;DHT22;662;48.814;9.318;2023-02-23T08:28:20;11.30;72.20
1337;DHT22;662;48.814;9.318;2023-02-23T08:30:46;11.30;72.20
1337;DHT22;662;48.814;9.318;2023-02-23T08:33:12;11.40;72.20
1337;DHT22;662;48.814;9.318;2023-02-23T08:35:37;11.40;72.20
1337;DHT22;662;48.814;9.318;2023-02-23T08:38:03;11.40;72.10
1337;DHT22;662;48.814;9.318;2023-02-23T08:40:28;11.50;72.30
1337;DHT22;662;48.814;9.318;2023-02-23T08:42:54;11.50;72.20
1337;DHT22;662;48.814;9.318;2023-02-23T08:45:20;11.50;72.10
1337;DHT22;662;48.814;9.318;2023-02-23T08:47:45;11.60;72.20
1337;DHT22;662;48.814;9.318;2023-02-23T08:50:12;11.60;72.20
1337;DHT22;662;48.814;9.318;2023-02-23T08:52:38;11.70;72.30
1337;DHT22;662;48.814;9.318;2023-02-23T08:55:05;11.70;72.20
1337;DHT22;662;48.814;9.318;2023-02-23T08:57:34;11.70;72.30
1337;DHT22;662;48.814;9.318;2023-02-23T09:00:00;11.80;72.30
1337;DHT22;662;48.814;9.318;2023-02-23T09:02:27;11.80;72.10
1337;DHT22;662;48.814;9.318;2023-02-23T09:04:53;11.80;72.00
1337;DHT22;662;48.814;9.318;2023-02-23T09:07:20;11.90;72.10
1337;DHT22;662;48.814;9.318;2023-02-23T09:09:57;11.90;72.10
1337;DHT22;662;48.814;9.318;2023-02-23T09:12:23;11.90;72.00
1337;DHT22;662;48.814;9.318;2023-02-23T09:14:49;11.90;71.90
1337;DHT22;662;48.814;9.318;2023-02-23T09:17:16;11.90;71.80
1337;DHT22;662;48.814;9.318;2023-02-23T09:19:42;11.90;71.80
1337;DHT22;662;48.814;9.318;2023-02-23T09:22:08;12.00;71.80
1337;DHT22;662;48.814;9.318;2023-02-23T09:24:33;12.00;71.70
1337;DHT22;662;48.814;9.318;2023-02-23T09:26:59;12.10;71.70
1337;DHT22;662;48.814;9.318;2023-02-23T09:29:25;12.10;71.70
1337;DHT22;662;48.814;9.318;2023-02-23T09:31:51;12.20;71.60
1337;DHT22;662;48.814;9.318;2023-02-23T09:34:17;12.20;71.50
1337;DHT22;662;48.814;9.318;2023-02-23T09:36:43;12.30;72.10
1337;DHT22;662;48.814;9.318;2023-02-23T09:39:09;12.30;71.20
1337;DHT22;662;48.814;9.318;2023-02-23T09:42:06;12.40;71.20
1337;DHT22;662;48.814;9.318;2023-02-23T09:45:02;12.40;71.20
1337;DHT22;662;48.814;9.318;2023-02-23T09:47:33;12.50;71.30
1337;DHT22;662;48.814;9.318;2023-02-23T09:50:16;12.60;71.30
1337;DHT22;662;48.814;9.318;2023-02-23T09:52:45;12.60;71.30
1337;DHT22;662;48.814;9.318;2023-02-23T09:55:12;12.70;71.10
1337;DHT22;662;48.814;9.318;2023-02-23T09:57:41;12.70;70.90
1337;DHT22;662;48.814;9.318;2023-02-23T10:00:22;12.70;70.70
1337;DHT22;662;48.814;9.318;2023-02-23T10:03:15;12.90;71.00
1337;DHT22;662;48.814;9.318;2023-02-23T10:05:54;12.90;70.60
1337;DHT22;662;48.814;9.318;2023-02-23T10:22:13;13.80;69.00
1337;DHT22;662;48.814;9.318;2023-02-23T10:24:47;13.90;68.70
1337;DHT22;662;48.814;9.318;2023-02-23T10:29:48;14.20;67.70
1337;DHT22;662;48.814;9.318;2023-02-23T10:32:37;14.30;67.40
1337;DHT22;662;48.814;9.318;2023-02-23T10:35:10;14.40;66.90
1337;DHT22;662;48.814;9.318;2023-02-23T10:37:37;14.50;66.60
1337;DHT22;662;48.814;9.318;2023-02-23T10:40:03;14.60;66.10
1337;DHT22;662;48.814;9.318;2023-02-23T10:42:30;14.70;66.00
1337;DHT22;662;48.814;9.318;2023-02-23T10:44:57;14.70;65.60
1337;DHT22;662;48.814;9.318;2023-02-23T10:47:32;14.80;65.40
1337;DHT22;662;48.814;9.318;2023-02-23T10:49:59;14.90;65.20
1337;DHT22;662;48.814;9.318;2023-02-23T10:52:34;15.00;64.90
1337;DHT22;662;48.814;9.318;2023-02-23T10:55:04;15.00;64.20
1337;DHT22;662;48.814;9.318;2023-02-23T10:57:37;15.10;64.00
1337;DHT22;662;48.814;9.318;2023-02-23T11:02:43;15.20;63.30
1337;DHT22;662;48.814;9.318;2023-02-23T11:05:32;15.30;63.30
1337;DHT22;662;48.814;9.318;2023-02-23T11:08:19;15.30;63.00
1337;DHT22;662;48.814;9.318;2023-02-23T11:11:06;15.40;62.70
1337;DHT22;662;48.814;9.318;2023-02-23T11:13:41;15.40;62.40
1337;DHT22;662;48.814;9.318;2023-02-23T11:16:22;15.40;62.10
1337;DHT22;662;48.814;9.318;2023-02-23T11:18:59;15.40;62.20
1337;DHT22;662;48.814;9.318;2023-02-23T11:24:00;15.20;62.00
1337;DHT22;662;48.814;9.318;2023-02-23T11:26:41;15.10;62.00
1337;DHT22;662;48.814;9.318;2023-02-23T11:32:06;15.00;62.10
1337;DHT22;662;48.814;9.318;2023-02-23T11:34:35;14.90;62.00
1337;DHT22;662;48.814;9.318;2023-02-23T11:40:01;15.00;62.40
1337;DHT22;662;48.814;9.318;2023-02-23T11:42:30;15.10;62.60
1337;DHT22;662;48.814;9.318;2023-02-23T11:45:16;15.20;62.60
1337;DHT22;662;48.814;9.318;2023-02-23T11:47:53;15.30;62.40
1337;DHT22;662;48.814;9.318;2023-02-23T11:53:03;15.70;61.80
1337;DHT22;662;48.814;9.318;2023-02-23T11:55:31;15.80;61.10
1337;DHT22;662;48.814;9.318;2023-02-23T12:00:58;16.20;59.90
1337;DHT22;662;48.814;9.318;2023-02-23T12:03:26;16.30;59.60
1337;DHT22;662;48.814;9.318;2023-02-23T12:05:55;16.50;59.20
1337;DHT22;662;48.814;9.318;2023-02-23T12:08:43;16.60;59.10
1337;DHT22;662;48.814;9.318;2023-02-23T12:11:17;16.60;58.80
1337;DHT22;662;48.814;9.318;2023-02-23T12:13:49;16.70;58.60
1337;DHT22;662;48.814;9.318;2023-02-23T12:16:23;16.70;58.40
1337;DHT22;662;48.814;9.318;2023-02-23T12:18:58;16.70;58.00
1337;DHT22;662;48.814;9.318;2023-02-23T12:24:17;16.70;57.50
1337;DHT22;662;48.814;9.318;2023-02-23T12:26:50;16.80;57.20
1337;DHT22;662;48.814;9.318;2023-02-23T12:29:30;16.70;56.70
1337;DHT22;662;48.814;9.318;2023-02-23T12:32:05;16.70;56.70
1337;DHT22;662;48.814;9.318;2023-02-23T12:34:43;16.80;56.70
1337;DHT22;662;48.814;9.318;2023-02-23T12:37:33;17.00;56.70
1337;DHT22;662;48.814;9.318;2023-02-23T12:40:23;17.40;56.60
1337;DHT22;662;48.814;9.318;2023-02-23T12:43:01;17.80;56.10
1337;DHT22;662;48.814;9.318;2023-02-23T12:45:58;18.00;55.70
1337;DHT22;662;48.814;9.318;2023-02-23T12:51:41;18.00;54.00
1337;DHT22;662;48.814;9.318;2023-02-23T12:54:11;17.80;53.60
1337;DHT22;662;48.814;9.318;2023-02-23T12:56:50;17.60;53.50
1337;DHT22;662;48.814;9.318;2023-02-23T13:02:45;17.30;53.60
1337;DHT22;662;48.814;9.318;2023-02-23T13:10:32;16.80;54.10
1337;DHT22;662;48.814;9.318;2023-02-23T13:18:47;16.60;54.70
1337;DHT22;662;48.814;9.318;2023-02-23T13:21:25;16.60;55.00
1337;DHT22;662;48.814;9.318;2023-02-23T13:24:00;16.50;54.90
1337;DHT22;662;48.814;9.318;2023-02-23T13:26:50;16.50;54.70
1337;DHT22;662;48.814;9.318;2023-02-23T13:31:43;16.40;54.60
1337;DHT22;662;48.814;9.318;2023-02-23T13:34:17;16.30;54.80
1337;DHT22;662;48.814;9.318;2023-02-23T13:36:45;16.30;54.90
1337;DHT22;662;48.814;9.318;2023-02-23T13:42:08;16.00;55.70
1337;DHT22;662;48.814;9.318;2023-02-23T13:44:46;16.00;56.50
1337;DHT22;662;48.814;9.318;2023-02-23T13:47:38;16.00;56.30
1337;DHT22;662;48.814;9.318;2023-02-23T13:50:28;16.00;56.50
1337;DHT22;662;48.814;9.318;2023-02-23T13:53:05;15.90;56.60
1337;DHT22;662;48.814;9.318;2023-02-23T13:55:35;15.90;56.70
1337;DHT22;662;48.814;9.318;2023-02-23T13:58:13;15.90;56.80
1337;DHT22;662;48.814;9.318;2023-02-23T14:00:40;15.90;56.90
1337;DHT22;662;48.814;9.318;2023-02-23T14:03:07;15.90;57.10
1337;DHT22;662;48.814;9.318;2023-02-23T14:05:45;16.00;57.10
1337;DHT22;662;48.814;9.318;2023-02-23T14:08:28;15.90;57.10
1337;DHT22;662;48.814;9.318;2023-02-23T14:10:55;15.90;57.00
1337;DHT22;662;48.814;9.318;2023-02-23T14:13:30;15.90;56.90
1337;DHT22;662;48.814;9.318;2023-02-23T14:16:18;15.90;56.90
1337;DHT22;662;48.814;9.318;2023-02-23T14:19:04;15.90;56.90
1337;DHT22;662;48.814;9.318;2023-02-23T14:21:56;15.90;56.90
1337;DHT22;662;48.814;9.318;2023-02-23T14:24:24;15.90;56.80
1337;DHT22;662;48.814;9.318;2023-02-23T14:29:37;16.00;56.80
1337;DHT22;662;48.814;9.318;2023-02-23T14:34:43;16.60;56.30
1337;DHT22;662;48.814;9.318;2023-02-23T14:39:42;16.70;55.30
1337;DHT22;662;48.814;9.318;2023-02-23T14:42:13;16.60;55.40
1337;DHT22;662;48.814;9.318;2023-02-23T14:44:47;16.60;55.20
1337;DHT22;662;48.814;9.318;2023-02-23T14:47:19;16.50;54.70
1337;DHT22;662;48.814;9.318;2023-02-23T14:49:59;16.50;54.80
1337;DHT22;662;48.814;9.318;2023-02-23T14:52:26;16.50;55.00
1337;DHT22;662;48.814;9.318;2023-02-23T14:57:41;16.50;54.90
1337;DHT22;662;48.814;9.318;2023-02-23T15:03:08;16.50;54.70
1337;DHT22;662;48.814;9.318;2023-02-23T15:08:20;16.60;54.50
1337;DHT22;662;48.814;9.318;2023-02-23T15:11:10;16.60;54.30
1337;DHT22;662;48.814;9.318;2023-02-23T15:13:37;16.70;54.20
1337;DHT22;662;48.814;9.318;2023-02-23T15:16:21;16.60;54.30
1337;DHT22;662;48.814;9.318;2023-02-23T15:21:56;16.60;54.20
1337;DHT22;662;48.814;9.318;2023-02-23T15:24:26;16.50;54.30
1337;DHT22;662;48.814;9.318;2023-02-23T15:26:56;16.30;54.30
1337;DHT22;662;48.814;9.318;2023-02-23T15:29:31;16.30;54.40
1337;DHT22;662;48.814;9.318;2023-02-23T15:32:10;16.20;54.60
1337;DHT22;662;48.814;9.318;2023-02-23T15:34:39;16.10;54.70
1337;DHT22;662;48.814;9.318;2023-02-23T15:37:35;16.00;54.90
1337;DHT22;662;48.814;9.318;2023-02-23T15:40:04;16.00;55.20
1337;DHT22;662;48.814;9.318;2023-02-23T15:43:00;15.90;55.30
1337;DHT22;662;48.814;9.318;2023-02-23T15:48:01;15.70;55.70
1337;DHT22;662;48.814;9.318;2023-02-23T15:50:30;15.70;55.90
1337;DHT22;662;48.814;9.318;2023-02-23T15:53:06;15.60;56.00
1337;DHT22;662;48.814;9.318;2023-02-23T15:55:41;15.50;56.10
1337;DHT22;662;48.814;9.318;2023-02-23T15:58:49;15.40;56.20
1337;DHT22;662;48.814;9.318;2023-02-23T16:01:19;15.40;56.50
1337;DHT22;662;48.814;9.318;2023-02-23T16:06:34;15.20;56.80
1337;DHT22;662;48.814;9.318;2023-02-23T16:11:50;15.10;57.10
1337;DHT22;662;48.814;9.318;2023-02-23T16:14:18;15.00;57.30
1337;DHT22;662;48.814;9.318;2023-02-23T16:16:45;15.00;57.50
1337;DHT22;662;48.814;9.318;2023-02-23T16:19:16;15.00;57.70
1337;DHT22;662;48.814;9.318;2023-02-23T16:21:51;14.90;57.90
1337;DHT22;662;48.814;9.318;2023-02-23T16:24:25;14.90;58.10
1337;DHT22;662;48.814;9.318;2023-02-23T16:26:59;14.80;58.20
1337;DHT22;662;48.814;9.318;2023-02-23T16:29:35;14.80;58.30
1337;DHT22;662;48.814;9.318;2023-02-23T16:32:15;14.70;58.30
1337;DHT22;662;48.814;9.318;2023-02-23T16:34:54;14.70;58.50
1337;DHT22;662;48.814;9.318;2023-02-23T16:37:23;14.60;58.50
1337;DHT22;662;48.814;9.318;2023-02-23T16:39:53;14.60;58.70
1337;DHT22;662;48.814;9.318;2023-02-23T16:42:33;14.50;58.80
1337;DHT22;662;48.814;9.318;2023-02-23T16:44:59;14.50;58.90
1337;DHT22;662;48.814;9.318;2023-02-23T16:50:04;14.40;59.20
1337;DHT22;662;48.814;9.318;2023-02-23T16:52:31;14.40;59.30
1337;DHT22;662;48.814;9.318;2023-02-23T16:54:57;14.30;59.40
1337;DHT22;662;48.814;9.318;2023-02-23T16:57:24;14.30;59.50
1337;DHT22;662;48.814;9.318;2023-02-23T16:59:53;14.20;59.60
1337;DHT22;662;48.814;9.318;2023-02-23T17:02:19;14.20;59.70
1337;DHT22;662;48.814;9.318;2023-02-23T17:04:49;14.20;59.80
1337;DHT22;662;48.814;9.318;2023-02-23T17:07:18;14.20;59.90
1337;DHT22;662;48.814;9.318;2023-02-23T17:09:44;14.20;60.00
1337;DHT22;662;48.814;9.318;2023-02-23T17:12:14;14.10;60.00
1337;DHT22;662;48.814;9.318;2023-02-23T17:14:43;14.10;60.10
1337;DHT22;662;48.814;9.318;2023-02-23T17:17:18;14.00;60.20
1337;DHT22;662;48.814;9.318;2023-02-23T17:19:44;14.00;60.40
1337;DHT22;662;48.814;9.318;2023-02-23T17:22:11;14.00;60.50
1337;DHT22;662;48.814;9.318;2023-02-23T17:24:38;14.00;60.70
1337;DHT22;662;48.814;9.318;2023-02-23T17:27:04;14.00;60.90
1337;DHT22;662;48.814;9.318;2023-02-23T17:29:30;14.00;61.00
1337;DHT22;662;48.814;9.318;2023-02-23T17:31:56;14.00;61.20
1337;DHT22;662;48.814;9.318;2023-02-23T17:34:27;13.90;61.10
1337;DHT22;662;48.814;9.318;2023-02-23T17:36:53;13.90;61.30
1337;DHT22;662;48.814;9.318;2023-02-23T17:39:19;13.90;61.50
1337;DHT22;662;48.814;9.318;2023-02-23T17:41:45;13.90;61.50
1337;DHT22;662;48.814;9.318;2023-02-23T17:44:11;13.90;61.70
1337;DHT22;662;48.814;9.318;2023-02-23T17:46:37;13.90;61.80
1337;DHT22;662;48.814;9.318;2023-02-23T17:49:03;13.80;61.80
1337;DHT22;662;48.814;9.318;2023-02-23T17:51:29;13.80;61.80
1337;DHT22;662;48.814;9.318;2023-02-23T17:53:55;13.80;61.80
1337;DHT22;662;48.814;9.318;2023-02-23T17:56:20;13.80;62.00
1337;DHT22;662;48.814;9.318;2023-02-23T17:58:48;13.80;62.10
1337;DHT22;662;48.814;9.318;2023-02-23T18:01:14;13.80;62.10
1337;DHT22;662;48.814;9.318;2023-02-23T18:03:41;13.80;62.20
1337;DHT22;662;48.814;9.318;2023-02-23T18:06:11;13.70;62.20
1337;DHT22;662;48.814;9.318;2023-02-23T18:08:38;13.70;62.20
1337;DHT22;662;48.814;9.318;2023-02-23T18:11:04;13.70;62.30
1337;DHT22;662;48.814;9.318;2023-02-23T18:13:30;13.70;62.50
1337;DHT22;662;48.814;9.318;2023-02-23T18:16:00;13.70;62.60
1337;DHT22;662;48.814;9.318;2023-02-23T18:18:27;13.70;62.70
1337;DHT22;662;48.814;9.318;2023-02-23T18:20:55;13.70;62.80
1337;DHT22;662;48.814;9.318;2023-02-23T18:23:21;13.70;62.80
1337;DHT22;662;48.814;9.318;2023-02-23T18:25:48;13.70;62.90
1337;DHT22;662;48.814;9.318;2023-02-23T18:28:15;13.70;63.00
1337;DHT22;662;48.814;9.318;2023-02-23T18:30:42;13.70;63.00
1337;DHT22;662;48.814;9.318;2023-02-23T18:33:08;13.60;63.00
1337;DHT22;662;48.814;9.318;2023-02-23T18:35:36;13.60;63.20
1337;DHT22;662;48.814;9.318;2023-02-23T18:38:07;13.60;63.60
1337;DHT22;662;48.814;9.318;2023-02-23T18:40:35;13.60;64.20
1337;DHT22;662;48.814;9.318;2023-02-23T18:43:01;13.60;64.70
1337;DHT22;662;48.814;9.318;2023-02-23T18:45:27;13.50;65.10
1337;DHT22;662;48.814;9.318;2023-02-23T18:47:53;13.50;65.30
1337;DHT22;662;48.814;9.318;2023-02-23T18:50:20;13.50;65.70
1337;DHT22;662;48.814;9.318;2023-02-23T18:52:49;13.50;66.40